Maskinonge, Canada
Current Conditions -  °F | °C
As of 7:00 PM on Monday 20 Oct 2014 (Local Time) from CYRQ Reporting Station
Overcast Overcast  
Wind Chill: 36°   Ceiling: 13000
Heat Index: 41°   Visibility: 9mi
Dew Point: 32°   Wind: 8mph
Humidity: 70%   Direction: 230°SW
Pressure: 29.93"   Gusts: NA
Location:  46.22°N, 73.02°W
Report Text: CYRQ 202300Z AUTO 23007KT 9SM SCT075 OVC130 05/M00 A2993 RMK TS/LTNG TEMPO UNAVBL SLP138
Loading
Personal Weather Stations






























Interactive Weather Map
Tropical Storm Tracking
New forecast layout! Learn more

10-Day Weather Forecast

Advertisements
Track Severe Weather on mobile